sensor_id;sensor_type;location;lat;lon;timestamp;P1;durP1;ratioP1;P2;durP2;ratioP2
18076;SDS011;9165;45.714;11.362;2024-01-11T00:00:18;22.43;;;13.37;;
18076;SDS011;9165;45.714;11.362;2024-01-11T00:02:45;12.93;;;9.57;;
18076;SDS011;9165;45.714;11.362;2024-01-11T00:05:11;15.57;;;11.40;;
18076;SDS011;9165;45.714;11.362;2024-01-11T00:07:39;16.30;;;10.87;;
18076;SDS011;9165;45.714;11.362;2024-01-11T00:10:06;18.93;;;10.10;;
18076;SDS011;9165;45.714;11.362;2024-01-11T00:12:32;16.77;;;9.53;;
18076;SDS011;9165;45.714;11.362;2024-01-11T00:14:59;15.70;;;10.17;;
18076;SDS011;9165;45.714;11.362;2024-01-11T00:17:25;16.83;;;9.67;;
18076;SDS011;9165;45.714;11.362;2024-01-11T00:19:52;16.37;;;9.50;;
18076;SDS011;9165;45.714;11.362;2024-01-11T00:22:18;15.77;;;10.17;;
18076;SDS011;9165;45.714;11.362;2024-01-11T00:24:46;16.50;;;9.60;;
18076;SDS011;9165;45.714;11.362;2024-01-11T00:27:13;15.00;;;9.33;;
18076;SDS011;9165;45.714;11.362;2024-01-11T00:29:39;12.03;;;8.60;;
18076;SDS011;9165;45.714;11.362;2024-01-11T00:32:06;16.70;;;9.40;;
18076;SDS011;9165;45.714;11.362;2024-01-11T00:34:32;14.50;;;9.60;;
18076;SDS011;9165;45.714;11.362;2024-01-11T00:37:01;12.33;;;8.73;;
18076;SDS011;9165;45.714;11.362;2024-01-11T00:39:27;14.37;;;9.43;;
18076;SDS011;9165;45.714;11.362;2024-01-11T00:41:55;13.63;;;8.77;;
18076;SDS011;9165;45.714;11.362;2024-01-11T00:44:22;12.37;;;8.60;;
18076;SDS011;9165;45.714;11.362;2024-01-11T00:46:48;13.73;;;8.60;;
18076;SDS011;9165;45.714;11.362;2024-01-11T00:49:15;13.20;;;9.25;;
18076;SDS011;9165;45.714;11.362;2024-01-11T00:51:41;13.30;;;8.33;;
18076;SDS011;9165;45.714;11.362;2024-01-11T00:54:08;12.97;;;8.17;;
18076;SDS011;9165;45.714;11.362;2024-01-11T00:56:34;15.90;;;8.87;;
18076;SDS011;9165;45.714;11.362;2024-01-11T00:59:02;14.60;;;8.63;;
18076;SDS011;9165;45.714;11.362;2024-01-11T01:01:29;15.83;;;8.47;;
18076;SDS011;9165;45.714;11.362;2024-01-11T01:03:55;13.77;;;8.30;;
18076;SDS011;9165;45.714;11.362;2024-01-11T01:06:22;14.20;;;8.10;;
18076;SDS011;9165;45.714;11.362;2024-01-11T01:08:48;11.60;;;7.73;;
18076;SDS011;9165;45.714;11.362;2024-01-11T01:11:15;13.67;;;8.77;;
18076;SDS011;9165;45.714;11.362;2024-01-11T01:13:41;13.40;;;7.77;;
18076;SDS011;9165;45.714;11.362;2024-01-11T01:16:09;12.60;;;7.50;;
18076;SDS011;9165;45.714;11.362;2024-01-11T01:18:36;13.03;;;8.67;;
18076;SDS011;9165;45.714;11.362;2024-01-11T01:21:03;11.87;;;7.07;;
18076;SDS011;9165;45.714;11.362;2024-01-11T01:23:32;14.30;;;8.67;;
18076;SDS011;9165;45.714;11.362;2024-01-11T01:25:58;12.10;;;8.37;;
18076;SDS011;9165;45.714;11.362;2024-01-11T01:28:25;12.90;;;7.73;;
18076;SDS011;9165;45.714;11.362;2024-01-11T01:30:51;12.80;;;8.03;;
18076;SDS011;9165;45.714;11.362;2024-01-11T01:33:19;12.67;;;7.53;;
18076;SDS011;9165;45.714;11.362;2024-01-11T01:35:46;12.60;;;8.33;;
18076;SDS011;9165;45.714;11.362;2024-01-11T01:38:12;12.83;;;7.83;;
18076;SDS011;9165;45.714;11.362;2024-01-11T01:40:39;11.97;;;8.07;;
18076;SDS011;9165;45.714;11.362;2024-01-11T01:43:06;10.67;;;6.90;;
18076;SDS011;9165;45.714;11.362;2024-01-11T01:45:33;10.57;;;7.07;;
18076;SDS011;9165;45.714;11.362;2024-01-11T01:47:59;12.30;;;7.17;;
18076;SDS011;9165;45.714;11.362;2024-01-11T01:50:27;9.97;;;7.13;;
18076;SDS011;9165;45.714;11.362;2024-01-11T01:52:54;10.87;;;7.03;;
18076;SDS011;9165;45.714;11.362;2024-01-11T01:55:21;12.33;;;7.97;;
18076;SDS011;9165;45.714;11.362;2024-01-11T01:57:48;12.20;;;7.03;;
18076;SDS011;9165;45.714;11.362;2024-01-11T02:00:16;10.97;;;7.27;;
18076;SDS011;9165;45.714;11.362;2024-01-11T02:02:43;12.27;;;6.93;;
18076;SDS011;9165;45.714;11.362;2024-01-11T02:05:11;11.07;;;6.93;;
18076;SDS011;9165;45.714;11.362;2024-01-11T02:07:39;8.83;;;6.73;;
18076;SDS011;9165;45.714;11.362;2024-01-11T02:10:06;11.73;;;6.73;;
18076;SDS011;9165;45.714;11.362;2024-01-11T02:12:33;10.73;;;6.83;;
18076;SDS011;9165;45.714;11.362;2024-01-11T02:15:01;11.67;;;7.07;;
18076;SDS011;9165;45.714;11.362;2024-01-11T02:17:28;10.53;;;6.73;;
18076;SDS011;9165;45.714;11.362;2024-01-11T02:19:55;10.97;;;6.97;;
18076;SDS011;9165;45.714;11.362;2024-01-11T02:22:22;14.07;;;7.90;;
18076;SDS011;9165;45.714;11.362;2024-01-11T02:24:51;12.90;;;8.00;;
18076;SDS011;9165;45.714;11.362;2024-01-11T02:27:18;11.37;;;6.97;;
18076;SDS011;9165;45.714;11.362;2024-01-11T02:29:44;11.57;;;7.40;;
18076;SDS011;9165;45.714;11.362;2024-01-11T02:32:11;10.93;;;6.70;;
18076;SDS011;9165;45.714;11.362;2024-01-11T02:34:38;9.60;;;6.87;;
18076;SDS011;9165;45.714;11.362;2024-01-11T02:37:04;8.20;;;5.97;;
18076;SDS011;9165;45.714;11.362;2024-01-11T02:39:31;9.63;;;6.20;;
18076;SDS011;9165;45.714;11.362;2024-01-11T02:42:00;13.43;;;7.17;;
18076;SDS011;9165;45.714;11.362;2024-01-11T02:44:27;10.73;;;7.00;;
18076;SDS011;9165;45.714;11.362;2024-01-11T02:46:53;10.53;;;6.83;;
18076;SDS011;9165;45.714;11.362;2024-01-11T02:49:20;10.87;;;7.13;;
18076;SDS011;9165;45.714;11.362;2024-01-11T02:51:46;10.03;;;7.17;;
18076;SDS011;9165;45.714;11.362;2024-01-11T02:54:13;10.23;;;7.23;;
18076;SDS011;9165;45.714;11.362;2024-01-11T02:56:39;11.83;;;6.87;;
18076;SDS011;9165;45.714;11.362;2024-01-11T02:59:08;9.50;;;6.77;;
18076;SDS011;9165;45.714;11.362;2024-01-11T03:01:35;9.73;;;6.93;;
18076;SDS011;9165;45.714;11.362;2024-01-11T03:04:01;15.73;;;7.87;;
18076;SDS011;9165;45.714;11.362;2024-01-11T03:06:28;10.23;;;7.53;;
18076;SDS011;9165;45.714;11.362;2024-01-11T03:08:55;10.83;;;5.90;;
18076;SDS011;9165;45.714;11.362;2024-01-11T03:11:22;9.20;;;6.47;;
18076;SDS011;9165;45.714;11.362;2024-01-11T03:13:48;13.67;;;7.63;;
18076;SDS011;9165;45.714;11.362;2024-01-11T03:16:16;8.77;;;6.73;;
18076;SDS011;9165;45.714;11.362;2024-01-11T03:18:42;12.17;;;6.73;;
18076;SDS011;9165;45.714;11.362;2024-01-11T03:21:09;10.70;;;6.60;;
18076;SDS011;9165;45.714;11.362;2024-01-11T03:23:35;9.77;;;5.63;;
18076;SDS011;9165;45.714;11.362;2024-01-11T03:26:02;10.77;;;6.83;;
18076;SDS011;9165;45.714;11.362;2024-01-11T03:28:29;12.23;;;7.20;;
18076;SDS011;9165;45.714;11.362;2024-01-11T03:30:56;8.67;;;6.00;;
18076;SDS011;9165;45.714;11.362;2024-01-11T03:33:24;9.87;;;6.67;;
18076;SDS011;9165;45.714;11.362;2024-01-11T03:35:51;10.67;;;6.63;;
18076;SDS011;9165;45.714;11.362;2024-01-11T03:38:17;11.13;;;6.37;;
18076;SDS011;9165;45.714;11.362;2024-01-11T03:40:44;12.90;;;7.17;;
18076;SDS011;9165;45.714;11.362;2024-01-11T03:43:10;10.47;;;6.37;;
18076;SDS011;9165;45.714;11.362;2024-01-11T03:45:37;9.73;;;6.87;;
18076;SDS011;9165;45.714;11.362;2024-01-11T03:48:03;10.83;;;7.30;;
18076;SDS011;9165;45.714;11.362;2024-01-11T03:50:32;12.23;;;7.00;;
18076;SDS011;9165;45.714;11.362;2024-01-11T03:52:58;10.30;;;6.77;;
18076;SDS011;9165;45.714;11.362;2024-01-11T03:55:25;12.17;;;7.20;;
18076;SDS011;9165;45.714;11.362;2024-01-11T03:57:51;11.63;;;6.80;;
18076;SDS011;9165;45.714;11.362;2024-01-11T04:00:18;8.97;;;6.47;;
18076;SDS011;9165;45.714;11.362;2024-01-11T04:02:45;8.73;;;6.80;;
18076;SDS011;9165;45.714;11.362;2024-01-11T04:05:11;13.20;;;6.70;;
18076;SDS011;9165;45.714;11.362;2024-01-11T04:07:39;9.70;;;6.00;;
18076;SDS011;9165;45.714;11.362;2024-01-11T04:10:06;10.47;;;6.83;;
18076;SDS011;9165;45.714;11.362;2024-01-11T04:12:34;9.83;;;5.87;;
18076;SDS011;9165;45.714;11.362;2024-01-11T04:15:01;8.53;;;5.70;;
18076;SDS011;9165;45.714;11.362;2024-01-11T04:17:27;8.77;;;6.07;;
18076;SDS011;9165;45.714;11.362;2024-01-11T04:19:54;11.90;;;7.23;;
18076;SDS011;9165;45.714;11.362;2024-01-11T04:22:21;7.57;;;5.90;;
18076;SDS011;9165;45.714;11.362;2024-01-11T04:24:48;7.27;;;5.30;;
18076;SDS011;9165;45.714;11.362;2024-01-11T04:27:15;9.97;;;6.30;;
18076;SDS011;9165;45.714;11.362;2024-01-11T04:29:41;10.13;;;6.13;;
18076;SDS011;9165;45.714;11.362;2024-01-11T04:32:08;9.57;;;6.30;;
18076;SDS011;9165;45.714;11.362;2024-01-11T04:34:34;7.40;;;4.57;;
18076;SDS011;9165;45.714;11.362;2024-01-11T04:37:01;7.60;;;4.93;;
18076;SDS011;9165;45.714;11.362;2024-01-11T04:39:27;7.37;;;5.23;;
18076;SDS011;9165;45.714;11.362;2024-01-11T04:41:55;10.13;;;5.70;;
18076;SDS011;9165;45.714;11.362;2024-01-11T04:44:22;8.57;;;5.30;;
18076;SDS011;9165;45.714;11.362;2024-01-11T04:46:48;10.50;;;6.40;;
18076;SDS011;9165;45.714;11.362;2024-01-11T04:49:15;9.23;;;5.87;;
18076;SDS011;9165;45.714;11.362;2024-01-11T04:51:41;11.33;;;7.60;;
18076;SDS011;9165;45.714;11.362;2024-01-11T04:54:08;10.83;;;6.60;;
18076;SDS011;9165;45.714;11.362;2024-01-11T04:56:34;9.83;;;5.30;;
18076;SDS011;9165;45.714;11.362;2024-01-11T04:59:02;8.33;;;5.60;;
18076;SDS011;9165;45.714;11.362;2024-01-11T05:01:29;9.03;;;6.10;;
18076;SDS011;9165;45.714;11.362;2024-01-11T05:03:55;9.13;;;6.10;;
18076;SDS011;9165;45.714;11.362;2024-01-11T05:06:22;8.07;;;5.93;;
18076;SDS011;9165;45.714;11.362;2024-01-11T05:08:50;7.30;;;5.47;;
18076;SDS011;9165;45.714;11.362;2024-01-11T05:11:17;7.63;;;5.40;;
18076;SDS011;9165;45.714;11.362;2024-01-11T05:13:43;8.23;;;5.13;;
18076;SDS011;9165;45.714;11.362;2024-01-11T05:16:23;8.17;;;5.83;;
18076;SDS011;9165;45.714;11.362;2024-01-11T05:18:50;8.60;;;5.83;;
18076;SDS011;9165;45.714;11.362;2024-01-11T05:21:16;9.33;;;5.80;;
18076;SDS011;9165;45.714;11.362;2024-01-11T05:23:43;8.43;;;5.47;;
18076;SDS011;9165;45.714;11.362;2024-01-11T05:26:10;20.20;;;17.57;;
18076;SDS011;9165;45.714;11.362;2024-01-11T05:28:36;7.83;;;5.60;;
18076;SDS011;9165;45.714;11.362;2024-01-11T05:31:05;8.97;;;6.30;;
18076;SDS011;9165;45.714;11.362;2024-01-11T05:33:33;8.80;;;6.47;;
18076;SDS011;9165;45.714;11.362;2024-01-11T05:35:59;10.67;;;6.80;;
18076;SDS011;9165;45.714;11.362;2024-01-11T05:38:26;9.10;;;6.50;;
18076;SDS011;9165;45.714;11.362;2024-01-11T05:40:52;11.17;;;6.60;;
18076;SDS011;9165;45.714;11.362;2024-01-11T05:43:19;13.73;;;8.03;;
18076;SDS011;9165;45.714;11.362;2024-01-11T05:45:45;10.43;;;7.37;;
18076;SDS011;9165;45.714;11.362;2024-01-11T05:48:12;14.50;;;7.60;;
18076;SDS011;9165;45.714;11.362;2024-01-11T05:50:40;15.83;;;7.97;;
18076;SDS011;9165;45.714;11.362;2024-01-11T05:53:06;10.57;;;7.03;;
18076;SDS011;9165;45.714;11.362;2024-01-11T05:55:33;12.73;;;7.17;;
18076;SDS011;9165;45.714;11.362;2024-01-11T05:58:00;13.33;;;7.30;;
18076;SDS011;9165;45.714;11.362;2024-01-11T06:00:27;10.73;;;6.77;;
18076;SDS011;9165;45.714;11.362;2024-01-11T06:02:54;15.13;;;7.40;;
18076;SDS011;9165;45.714;11.362;2024-01-11T06:05:20;11.53;;;6.07;;
18076;SDS011;9165;45.714;11.362;2024-01-11T06:07:48;8.43;;;5.53;;
18076;SDS011;9165;45.714;11.362;2024-01-11T06:10:14;7.87;;;5.40;;
18076;SDS011;9165;45.714;11.362;2024-01-11T06:12:42;7.93;;;5.10;;
18076;SDS011;9165;45.714;11.362;2024-01-11T06:15:08;9.47;;;6.10;;
18076;SDS011;9165;45.714;11.362;2024-01-11T06:17:35;9.13;;;5.17;;
18076;SDS011;9165;45.714;11.362;2024-01-11T06:20:04;9.93;;;5.30;;
18076;SDS011;9165;45.714;11.362;2024-01-11T06:22:31;11.00;;;5.30;;
18076;SDS011;9165;45.714;11.362;2024-01-11T06:25:01;5.97;;;4.53;;
18076;SDS011;9165;45.714;11.362;2024-01-11T06:33:37;8.17;;;5.10;;
18076;SDS011;9165;45.714;11.362;2024-01-11T06:36:04;10.07;;;5.90;;
18076;SDS011;9165;45.714;11.362;2024-01-11T06:38:31;9.13;;;5.77;;
18076;SDS011;9165;45.714;11.362;2024-01-11T06:40:59;9.60;;;6.27;;
18076;SDS011;9165;45.714;11.362;2024-01-11T06:43:25;11.80;;;5.97;;
18076;SDS011;9165;45.714;11.362;2024-01-11T06:45:52;13.77;;;6.17;;
18076;SDS011;9165;45.714;11.362;2024-01-11T06:48:19;13.57;;;5.97;;
18076;SDS011;9165;45.714;11.362;2024-01-11T06:50:45;9.63;;;6.03;;
18076;SDS011;9165;45.714;11.362;2024-01-11T06:53:12;9.83;;;6.30;;
18076;SDS011;9165;45.714;11.362;2024-01-11T06:55:39;8.97;;;5.83;;
18076;SDS011;9165;45.714;11.362;2024-01-11T06:58:08;10.27;;;6.00;;
18076;SDS011;9165;45.714;11.362;2024-01-11T07:00:35;8.93;;;6.00;;
18076;SDS011;9165;45.714;11.362;2024-01-11T07:03:03;7.37;;;5.70;;
18076;SDS011;9165;45.714;11.362;2024-01-11T07:05:30;7.43;;;6.20;;
18076;SDS011;9165;45.714;11.362;2024-01-11T07:07:57;11.23;;;6.20;;
18076;SDS011;9165;45.714;11.362;2024-01-11T07:10:24;11.30;;;8.03;;
18076;SDS011;9165;45.714;11.362;2024-01-11T07:12:50;13.23;;;8.77;;
18076;SDS011;9165;45.714;11.362;2024-01-11T07:15:18;16.20;;;8.30;;
18076;SDS011;9165;45.714;11.362;2024-01-11T07:32:25;17.13;;;9.93;;
18076;SDS011;9165;45.714;11.362;2024-01-11T07:34:52;15.47;;;9.77;;
18076;SDS011;9165;45.714;11.362;2024-01-11T07:37:18;12.93;;;8.97;;
18076;SDS011;9165;45.714;11.362;2024-01-11T07:39:45;21.13;;;9.50;;
18076;SDS011;9165;45.714;11.362;2024-01-11T07:42:11;16.17;;;10.00;;
18076;SDS011;9165;45.714;11.362;2024-01-11T07:44:38;13.97;;;9.23;;
18076;SDS011;9165;45.714;11.362;2024-01-11T07:47:05;16.77;;;9.60;;
18076;SDS011;9165;45.714;11.362;2024-01-11T07:49:36;15.03;;;9.30;;
18076;SDS011;9165;45.714;11.362;2024-01-11T07:52:03;14.07;;;9.40;;
18076;SDS011;9165;45.714;11.362;2024-01-11T07:54:29;15.17;;;8.67;;
18076;SDS011;9165;45.714;11.362;2024-01-11T07:56:57;17.63;;;10.30;;
18076;SDS011;9165;45.714;11.362;2024-01-11T07:59:23;13.33;;;8.93;;
18076;SDS011;9165;45.714;11.362;2024-01-11T08:01:50;12.77;;;8.60;;
18076;SDS011;9165;45.714;11.362;2024-01-11T08:14:07;14.37;;;8.97;;
18076;SDS011;9165;45.714;11.362;2024-01-11T08:16:34;13.97;;;8.63;;
18076;SDS011;9165;45.714;11.362;2024-01-11T08:19:01;14.07;;;8.77;;
18076;SDS011;9165;45.714;11.362;2024-01-11T08:21:27;19.60;;;8.90;;
18076;SDS011;9165;45.714;11.362;2024-01-11T08:23:54;12.37;;;8.70;;
18076;SDS011;9165;45.714;11.362;2024-01-11T08:26:21;11.67;;;8.03;;
18076;SDS011;9165;45.714;11.362;2024-01-11T08:28:47;15.77;;;8.80;;
18076;SDS011;9165;45.714;11.362;2024-01-11T08:38:34;16.10;;;7.70;;
18076;SDS011;9165;45.714;11.362;2024-01-11T08:41:01;12.57;;;7.50;;
18076;SDS011;9165;45.714;11.362;2024-01-11T08:43:28;19.90;;;8.47;;
18076;SDS011;9165;45.714;11.362;2024-01-11T08:45:55;17.90;;;8.83;;
18076;SDS011;9165;45.714;11.362;2024-01-11T08:48:21;19.43;;;9.47;;
18076;SDS011;9165;45.714;11.362;2024-01-11T08:55:42;20.27;;;9.93;;
18076;SDS011;9165;45.714;11.362;2024-01-11T08:58:09;20.33;;;8.40;;
18076;SDS011;9165;45.714;11.362;2024-01-11T09:00:35;13.67;;;8.10;;
18076;SDS011;9165;45.714;11.362;2024-01-11T09:03:02;11.23;;;7.23;;
18076;SDS011;9165;45.714;11.362;2024-01-11T09:05:29;10.90;;;6.43;;
18076;SDS011;9165;45.714;11.362;2024-01-11T09:07:57;12.73;;;6.40;;
18076;SDS011;9165;45.714;11.362;2024-01-11T09:10:23;14.80;;;6.87;;
18076;SDS011;9165;45.714;11.362;2024-01-11T09:12:52;11.97;;;6.57;;
18076;SDS011;9165;45.714;11.362;2024-01-11T09:15:19;11.00;;;7.27;;
18076;SDS011;9165;45.714;11.362;2024-01-11T09:17:45;10.37;;;6.47;;
18076;SDS011;9165;45.714;11.362;2024-01-11T09:20:12;11.67;;;5.73;;
18076;SDS011;9165;45.714;11.362;2024-01-11T09:22:39;8.57;;;5.70;;
18076;SDS011;9165;45.714;11.362;2024-01-11T09:25:06;10.27;;;5.00;;
18076;SDS011;9165;45.714;11.362;2024-01-11T09:27:33;11.97;;;5.67;;
18076;SDS011;9165;45.714;11.362;2024-01-11T09:30:02;10.77;;;5.80;;
18076;SDS011;9165;45.714;11.362;2024-01-11T09:32:27;12.00;;;5.97;;
18076;SDS011;9165;45.714;11.362;2024-01-11T09:34:55;14.80;;;6.43;;
18076;SDS011;9165;45.714;11.362;2024-01-11T09:37:21;9.47;;;5.87;;
18076;SDS011;9165;45.714;11.362;2024-01-11T09:39:49;11.37;;;6.10;;
18076;SDS011;9165;45.714;11.362;2024-01-11T09:42:15;14.47;;;6.93;;
18076;SDS011;9165;45.714;11.362;2024-01-11T09:44:44;22.67;;;7.33;;
18076;SDS011;9165;45.714;11.362;2024-01-11T09:47:12;14.03;;;6.40;;
18076;SDS011;9165;45.714;11.362;2024-01-11T09:49:40;10.13;;;6.40;;
18076;SDS011;9165;45.714;11.362;2024-01-11T09:52:07;10.73;;;6.43;;
18076;SDS011;9165;45.714;11.362;2024-01-11T09:54:36;12.77;;;6.40;;
18076;SDS011;9165;45.714;11.362;2024-01-11T09:57:02;9.47;;;5.97;;
18076;SDS011;9165;45.714;11.362;2024-01-11T09:59:30;14.13;;;7.13;;
18076;SDS011;9165;45.714;11.362;2024-01-11T10:01:56;10.40;;;6.57;;
18076;SDS011;9165;45.714;11.362;2024-01-11T10:04:24;9.80;;;6.10;;
18076;SDS011;9165;45.714;11.362;2024-01-11T10:06:51;10.27;;;6.27;;
18076;SDS011;9165;45.714;11.362;2024-01-11T10:09:18;8.97;;;6.10;;
18076;SDS011;9165;45.714;11.362;2024-01-11T10:11:45;8.97;;;5.97;;
18076;SDS011;9165;45.714;11.362;2024-01-11T10:14:12;10.87;;;6.13;;
18076;SDS011;9165;45.714;11.362;2024-01-11T10:16:38;10.77;;;5.60;;
18076;SDS011;9165;45.714;11.362;2024-01-11T10:19:05;10.63;;;6.33;;
18076;SDS011;9165;45.714;11.362;2024-01-11T10:21:33;10.20;;;6.50;;
18076;SDS011;9165;45.714;11.362;2024-01-11T10:23:59;8.53;;;5.53;;
18076;SDS011;9165;45.714;11.362;2024-01-11T10:26:30;11.20;;;6.63;;
18076;SDS011;9165;45.714;11.362;2024-01-11T10:28:58;10.80;;;6.73;;
18076;SDS011;9165;45.714;11.362;2024-01-11T10:31:27;10.80;;;7.33;;
18076;SDS011;9165;45.714;11.362;2024-01-11T10:33:54;11.73;;;6.57;;
18076;SDS011;9165;45.714;11.362;2024-01-11T10:36:20;10.80;;;6.67;;
18076;SDS011;9165;45.714;11.362;2024-01-11T10:38:50;11.90;;;6.53;;
18076;SDS011;9165;45.714;11.362;2024-01-11T10:41:18;8.90;;;6.13;;
18076;SDS011;9165;45.714;11.362;2024-01-11T10:43:45;11.33;;;6.63;;
18076;SDS011;9165;45.714;11.362;2024-01-11T10:46:12;11.70;;;6.97;;
18076;SDS011;9165;45.714;11.362;2024-01-11T10:48:39;8.67;;;6.10;;
18076;SDS011;9165;45.714;11.362;2024-01-11T10:51:08;11.27;;;6.33;;
18076;SDS011;9165;45.714;11.362;2024-01-11T10:53:40;10.67;;;7.13;;
18076;SDS011;9165;45.714;11.362;2024-01-11T10:56:09;11.73;;;7.17;;
18076;SDS011;9165;45.714;11.362;2024-01-11T10:58:37;11.63;;;6.63;;
18076;SDS011;9165;45.714;11.362;2024-01-11T11:01:05;10.90;;;7.43;;
18076;SDS011;9165;45.714;11.362;2024-01-11T11:03:32;8.70;;;6.80;;
18076;SDS011;9165;45.714;11.362;2024-01-11T11:06:00;14.30;;;7.93;;
18076;SDS011;9165;45.714;11.362;2024-01-11T11:08:27;12.03;;;6.77;;
18076;SDS011;9165;45.714;11.362;2024-01-11T11:10:55;12.83;;;8.03;;
18076;SDS011;9165;45.714;11.362;2024-01-11T11:13:23;13.43;;;8.10;;
18076;SDS011;9165;45.714;11.362;2024-01-11T11:15:50;10.50;;;6.70;;
18076;SDS011;9165;45.714;11.362;2024-01-11T11:18:16;9.63;;;6.53;;
18076;SDS011;9165;45.714;11.362;2024-01-11T11:20:43;10.13;;;6.57;;
18076;SDS011;9165;45.714;11.362;2024-01-11T11:23:11;10.27;;;6.53;;
18076;SDS011;9165;45.714;11.362;2024-01-11T11:25:38;11.47;;;7.57;;
18076;SDS011;9165;45.714;11.362;2024-01-11T11:28:06;9.27;;;6.27;;
18076;SDS011;9165;45.714;11.362;2024-01-11T11:30:36;11.47;;;7.23;;
18076;SDS011;9165;45.714;11.362;2024-01-11T11:33:16;11.00;;;6.87;;
18076;SDS011;9165;45.714;11.362;2024-01-11T11:35:42;10.47;;;6.53;;
18076;SDS011;9165;45.714;11.362;2024-01-11T11:38:16;11.43;;;7.30;;
18076;SDS011;9165;45.714;11.362;2024-01-11T11:50:10;8.93;;;5.90;;
18076;SDS011;9165;45.714;11.362;2024-01-11T11:52:39;9.97;;;5.70;;
18076;SDS011;9165;45.714;11.362;2024-01-11T11:55:07;9.50;;;5.93;;
18076;SDS011;9165;45.714;11.362;2024-01-11T11:57:34;12.50;;;6.33;;
18076;SDS011;9165;45.714;11.362;2024-01-11T12:06:30;8.90;;;5.53;;
18076;SDS011;9165;45.714;11.362;2024-01-11T12:09:07;7.87;;;5.53;;
18076;SDS011;9165;45.714;11.362;2024-01-11T12:11:52;9.77;;;5.73;;
18076;SDS011;9165;45.714;11.362;2024-01-11T12:30:01;11.37;;;6.30;;
18076;SDS011;9165;45.714;11.362;2024-01-11T12:32:48;10.47;;;5.80;;
18076;SDS011;9165;45.714;11.362;2024-01-11T12:35:21;10.47;;;6.30;;
18076;SDS011;9165;45.714;11.362;2024-01-11T12:37:52;9.90;;;6.23;;
18076;SDS011;9165;45.714;11.362;2024-01-11T12:40:18;8.70;;;5.87;;
18076;SDS011;9165;45.714;11.362;2024-01-11T12:42:45;8.47;;;5.63;;
18076;SDS011;9165;45.714;11.362;2024-01-11T12:45:15;10.23;;;5.93;;
18076;SDS011;9165;45.714;11.362;2024-01-11T12:47:42;12.00;;;6.27;;
18076;SDS011;9165;45.714;11.362;2024-01-11T12:50:09;10.80;;;6.20;;
18076;SDS011;9165;45.714;11.362;2024-01-11T12:52:36;10.13;;;6.43;;
18076;SDS011;9165;45.714;11.362;2024-01-11T12:55:17;11.03;;;6.43;;
18076;SDS011;9165;45.714;11.362;2024-01-11T12:57:44;11.87;;;5.87;;
18076;SDS011;9165;45.714;11.362;2024-01-11T13:00:11;13.60;;;5.93;;
18076;SDS011;9165;45.714;11.362;2024-01-11T13:02:40;7.60;;;6.07;;
18076;SDS011;9165;45.714;11.362;2024-01-11T13:05:08;10.40;;;6.70;;
18076;SDS011;9165;45.714;11.362;2024-01-11T13:07:36;9.37;;;6.13;;
18076;SDS011;9165;45.714;11.362;2024-01-11T13:10:02;12.03;;;7.23;;
18076;SDS011;9165;45.714;11.362;2024-01-11T13:12:29;9.40;;;6.20;;
18076;SDS011;9165;45.714;11.362;2024-01-11T13:14:56;11.57;;;6.93;;
18076;SDS011;9165;45.714;11.362;2024-01-11T13:17:22;10.53;;;6.67;;
18076;SDS011;9165;45.714;11.362;2024-01-11T13:19:50;9.83;;;6.73;;
18076;SDS011;9165;45.714;11.362;2024-01-11T13:22:17;8.67;;;5.80;;
18076;SDS011;9165;45.714;11.362;2024-01-11T13:24:44;11.77;;;6.83;;
18076;SDS011;9165;45.714;11.362;2024-01-11T13:27:11;10.00;;;6.00;;
18076;SDS011;9165;45.714;11.362;2024-01-11T13:29:38;13.77;;;6.83;;
18076;SDS011;9165;45.714;11.362;2024-01-11T13:32:04;10.27;;;7.40;;
18076;SDS011;9165;45.714;11.362;2024-01-11T13:34:31;10.17;;;7.40;;
18076;SDS011;9165;45.714;11.362;2024-01-11T13:36:59;16.47;;;7.23;;
18076;SDS011;9165;45.714;11.362;2024-01-11T13:39:26;16.50;;;6.30;;
18076;SDS011;9165;45.714;11.362;2024-01-11T13:41:54;17.30;;;7.10;;
18076;SDS011;9165;45.714;11.362;2024-01-11T13:44:20;13.67;;;8.03;;
18076;SDS011;9165;45.714;11.362;2024-01-11T13:46:47;18.87;;;9.40;;
18076;SDS011;9165;45.714;11.362;2024-01-11T13:49:13;14.40;;;7.33;;
18076;SDS011;9165;45.714;11.362;2024-01-11T13:51:41;13.93;;;7.57;;
18076;SDS011;9165;45.714;11.362;2024-01-11T13:54:11;13.83;;;8.13;;
18076;SDS011;9165;45.714;11.362;2024-01-11T13:56:37;13.83;;;7.73;;
18076;SDS011;9165;45.714;11.362;2024-01-11T13:59:04;14.07;;;7.23;;
18076;SDS011;9165;45.714;11.362;2024-01-11T14:01:30;13.27;;;8.07;;
18076;SDS011;9165;45.714;11.362;2024-01-11T14:03:57;12.30;;;7.70;;
18076;SDS011;9165;45.714;11.362;2024-01-11T14:06:23;13.13;;;8.23;;
18076;SDS011;9165;45.714;11.362;2024-01-11T14:08:50;11.87;;;7.97;;
18076;SDS011;9165;45.714;11.362;2024-01-11T14:11:19;13.87;;;8.03;;
18076;SDS011;9165;45.714;11.362;2024-01-11T14:13:45;13.65;;;8.45;;
18076;SDS011;9165;45.714;11.362;2024-01-11T14:16:12;13.10;;;8.20;;
18076;SDS011;9165;45.714;11.362;2024-01-11T14:18:41;15.00;;;7.73;;
18076;SDS011;9165;45.714;11.362;2024-01-11T14:21:07;14.83;;;8.53;;
18076;SDS011;9165;45.714;11.362;2024-01-11T14:23:36;16.87;;;9.60;;
18076;SDS011;9165;45.714;11.362;2024-01-11T14:26:03;14.00;;;8.90;;
18076;SDS011;9165;45.714;11.362;2024-01-11T14:28:31;18.00;;;9.50;;
18076;SDS011;9165;45.714;11.362;2024-01-11T14:30:57;16.77;;;9.40;;
18076;SDS011;9165;45.714;11.362;2024-01-11T14:33:24;16.43;;;9.53;;
18076;SDS011;9165;45.714;11.362;2024-01-11T14:35:51;17.53;;;10.27;;
18076;SDS011;9165;45.714;11.362;2024-01-11T14:38:18;14.93;;;9.27;;
18076;SDS011;9165;45.714;11.362;2024-01-11T14:40:44;17.40;;;9.70;;
18076;SDS011;9165;45.714;11.362;2024-01-11T14:43:11;17.03;;;9.03;;
18076;SDS011;9165;45.714;11.362;2024-01-11T14:45:39;19.43;;;10.10;;
18076;SDS011;9165;45.714;11.362;2024-01-11T14:48:06;16.97;;;10.40;;
18076;SDS011;9165;45.714;11.362;2024-01-11T14:50:32;17.75;;;9.50;;
18076;SDS011;9165;45.714;11.362;2024-01-11T14:53:00;14.40;;;8.80;;
18076;SDS011;9165;45.714;11.362;2024-01-11T14:55:28;23.57;;;11.80;;
18076;SDS011;9165;45.714;11.362;2024-01-11T14:57:55;19.97;;;12.03;;
18076;SDS011;9165;45.714;11.362;2024-01-11T15:00:22;17.63;;;11.70;;
18076;SDS011;9165;45.714;11.362;2024-01-11T15:02:50;24.80;;;11.00;;
18076;SDS011;9165;45.714;11.362;2024-01-11T15:05:17;24.07;;;11.93;;
18076;SDS011;9165;45.714;11.362;2024-01-11T15:07:44;19.37;;;11.63;;
18076;SDS011;9165;45.714;11.362;2024-01-11T15:10:11;30.03;;;12.60;;
18076;SDS011;9165;45.714;11.362;2024-01-11T15:12:37;19.53;;;10.97;;
18076;SDS011;9165;45.714;11.362;2024-01-11T15:15:04;22.10;;;11.80;;
18076;SDS011;9165;45.714;11.362;2024-01-11T15:17:32;19.70;;;11.03;;
18076;SDS011;9165;45.714;11.362;2024-01-11T15:20:00;17.97;;;11.17;;
18076;SDS011;9165;45.714;11.362;2024-01-11T15:22:29;22.03;;;11.67;;
18076;SDS011;9165;45.714;11.362;2024-01-11T15:24:56;18.23;;;11.77;;
18076;SDS011;9165;45.714;11.362;2024-01-11T15:27:22;20.83;;;12.93;;
18076;SDS011;9165;45.714;11.362;2024-01-11T15:29:49;19.83;;;12.60;;
18076;SDS011;9165;45.714;11.362;2024-01-11T15:32:16;17.23;;;11.93;;
18076;SDS011;9165;45.714;11.362;2024-01-11T15:34:43;20.67;;;12.50;;
18076;SDS011;9165;45.714;11.362;2024-01-11T15:37:12;24.10;;;13.60;;
18076;SDS011;9165;45.714;11.362;2024-01-11T15:39:38;28.60;;;15.20;;
18076;SDS011;9165;45.714;11.362;2024-01-11T15:42:05;24.17;;;14.00;;
18076;SDS011;9165;45.714;11.362;2024-01-11T15:44:32;24.40;;;13.43;;
18076;SDS011;9165;45.714;11.362;2024-01-11T15:46:59;27.73;;;15.43;;
18076;SDS011;9165;45.714;11.362;2024-01-11T15:49:26;31.57;;;18.53;;